sensor_id;sensor_type;location;lat;lon;timestamp;temperature;humidity
23385;DHT22;11865;45.394;10.978;2023-02-12T00:01:10;1.00;99.90
23385;DHT22;11865;45.394;10.978;2023-02-12T00:03:38;1.30;99.90
23385;DHT22;11865;45.394;10.978;2023-02-12T00:06:08;1.40;99.90
23385;DHT22;11865;45.394;10.978;2023-02-12T00:08:36;1.50;99.90
23385;DHT22;11865;45.394;10.978;2023-02-12T00:11:10;1.50;99.90
23385;DHT22;11865;45.394;10.978;2023-02-12T00:13:38;1.50;99.90
23385;DHT22;11865;45.394;10.978;2023-02-12T00:16:08;1.60;99.90
23385;DHT22;11865;45.394;10.978;2023-02-12T00:18:36;1.50;99.90
23385;DHT22;11865;45.394;10.978;2023-02-12T00:21:04;1.40;99.90
23385;DHT22;11865;45.394;10.978;2023-02-12T00:23:32;1.00;99.90
23385;DHT22;11865;45.394;10.978;2023-02-12T00:25:59;0.90;99.90
23385;DHT22;11865;45.394;10.978;2023-02-12T00:28:27;0.80;99.90
23385;DHT22;11865;45.394;10.978;2023-02-12T00:30:54;0.60;99.90
23385;DHT22;11865;45.394;10.978;2023-02-12T00:33:22;0.70;99.90
23385;DHT22;11865;45.394;10.978;2023-02-12T00:35:58;0.60;99.90
23385;DHT22;11865;45.394;10.978;2023-02-12T00:38:26;0.70;99.90
23385;DHT22;11865;45.394;10.978;2023-02-12T00:40:53;0.70;99.90
23385;DHT22;11865;45.394;10.978;2023-02-12T00:43:21;0.60;99.90
23385;DHT22;11865;45.394;10.978;2023-02-12T00:45:48;0.40;99.90
23385;DHT22;11865;45.394;10.978;2023-02-12T00:48:16;0.50;99.90
23385;DHT22;11865;45.394;10.978;2023-02-12T00:50:45;0.50;99.90
23385;DHT22;11865;45.394;10.978;2023-02-12T00:53:13;0.50;99.90
23385;DHT22;11865;45.394;10.978;2023-02-12T00:55:41;0.60;99.90
23385;DHT22;11865;45.394;10.978;2023-02-12T00:58:09;0.40;99.90
23385;DHT22;11865;45.394;10.978;2023-02-12T01:00:36;0.40;99.90
23385;DHT22;11865;45.394;10.978;2023-02-12T01:03:04;0.50;99.90
23385;DHT22;11865;45.394;10.978;2023-02-12T01:05:32;0.40;99.90
23385;DHT22;11865;45.394;10.978;2023-02-12T01:07:59;0.30;99.90
23385;DHT22;11865;45.394;10.978;2023-02-12T01:10:27;0.10;99.90
23385;DHT22;11865;45.394;10.978;2023-02-12T01:12:55;0.10;99.90
23385;DHT22;11865;45.394;10.978;2023-02-12T01:15:23;0.00;99.90
23385;DHT22;11865;45.394;10.978;2023-02-12T01:17:51;0.00;99.90
23385;DHT22;11865;45.394;10.978;2023-02-12T01:20:21;0.00;99.90
23385;DHT22;11865;45.394;10.978;2023-02-12T01:22:50;0.10;99.90
23385;DHT22;11865;45.394;10.978;2023-02-12T01:25:17;0.20;99.90
23385;DHT22;11865;45.394;10.978;2023-02-12T01:27:47;0.30;99.90
23385;DHT22;11865;45.394;10.978;2023-02-12T01:30:15;0.20;99.90
23385;DHT22;11865;45.394;10.978;2023-02-12T01:32:43;0.10;99.90
23385;DHT22;11865;45.394;10.978;2023-02-12T01:35:10;0.20;99.90
23385;DHT22;11865;45.394;10.978;2023-02-12T01:37:40;0.20;99.90
23385;DHT22;11865;45.394;10.978;2023-02-12T01:40:08;0.10;99.90
23385;DHT22;11865;45.394;10.978;2023-02-12T01:42:36;0.00;99.90
23385;DHT22;11865;45.394;10.978;2023-02-12T01:47:43;-0.10;99.90
23385;DHT22;11865;45.394;10.978;2023-02-12T01:50:14;-0.50;99.90
23385;DHT22;11865;45.394;10.978;2023-02-12T01:52:47;-0.30;99.90
23385;DHT22;11865;45.394;10.978;2023-02-12T01:55:16;-0.30;99.90
23385;DHT22;11865;45.394;10.978;2023-02-12T01:57:46;-0.30;99.90
23385;DHT22;11865;45.394;10.978;2023-02-12T02:00:19;-0.20;99.90
23385;DHT22;11865;45.394;10.978;2023-02-12T02:02:51;-0.20;99.90
23385;DHT22;11865;45.394;10.978;2023-02-12T02:08:10;-0.20;99.90
23385;DHT22;11865;45.394;10.978;2023-02-12T02:10:38;-0.20;99.90
23385;DHT22;11865;45.394;10.978;2023-02-12T02:13:06;-0.30;99.90
23385;DHT22;11865;45.394;10.978;2023-02-12T02:15:57;-0.30;99.90
23385;DHT22;11865;45.394;10.978;2023-02-12T02:18:34;0.30;99.90
23385;DHT22;11865;45.394;10.978;2023-02-12T02:24:14;0.00;99.90
23385;DHT22;11865;45.394;10.978;2023-02-12T02:32:49;-0.20;99.90
23385;DHT22;11865;45.394;10.978;2023-02-12T02:41:21;-0.40;99.90
23385;DHT22;11865;45.394;10.978;2023-02-12T02:43:52;-0.40;99.90
23385;DHT22;11865;45.394;10.978;2023-02-12T02:48:52;-0.40;99.90
23385;DHT22;11865;45.394;10.978;2023-02-12T02:51:31;-0.50;99.90
23385;DHT22;11865;45.394;10.978;2023-02-12T02:54:04;-0.60;99.90
23385;DHT22;11865;45.394;10.978;2023-02-12T02:56:36;-0.50;99.90
23385;DHT22;11865;45.394;10.978;2023-02-12T02:59:10;-0.40;99.90
23385;DHT22;11865;45.394;10.978;2023-02-12T03:01:43;-0.10;99.90
23385;DHT22;11865;45.394;10.978;2023-02-12T03:04:21;-0.20;99.90
23385;DHT22;11865;45.394;10.978;2023-02-12T03:06:53;-0.20;99.90
23385;DHT22;11865;45.394;10.978;2023-02-12T03:09:27;0.20;99.90
23385;DHT22;11865;45.394;10.978;2023-02-12T03:11:59;0.90;99.90
23385;DHT22;11865;45.394;10.978;2023-02-12T03:14:38;1.20;99.90
23385;DHT22;11865;45.394;10.978;2023-02-12T03:17:17;0.80;99.90
23385;DHT22;11865;45.394;10.978;2023-02-12T03:19:54;0.30;99.90
23385;DHT22;11865;45.394;10.978;2023-02-12T03:22:35;0.10;99.90
23385;DHT22;11865;45.394;10.978;2023-02-12T03:27:45;-0.10;99.90
23385;DHT22;11865;45.394;10.978;2023-02-12T03:30:13;-0.10;99.90
23385;DHT22;11865;45.394;10.978;2023-02-12T03:35:32;-0.30;99.90
23385;DHT22;11865;45.394;10.978;2023-02-12T03:38:03;-0.30;99.90
23385;DHT22;11865;45.394;10.978;2023-02-12T03:40:39;-0.30;99.90
23385;DHT22;11865;45.394;10.978;2023-02-12T03:43:21;-0.20;99.90
23385;DHT22;11865;45.394;10.978;2023-02-12T03:53:30;-0.30;99.90
23385;DHT22;11865;45.394;10.978;2023-02-12T03:56:08;-0.40;99.90
23385;DHT22;11865;45.394;10.978;2023-02-12T03:58:38;-0.20;99.90
23385;DHT22;11865;45.394;10.978;2023-02-12T04:01:07;-0.10;99.90
23385;DHT22;11865;45.394;10.978;2023-02-12T04:03:35;-0.40;99.90
23385;DHT22;11865;45.394;10.978;2023-02-12T04:06:03;-0.30;99.90
23385;DHT22;11865;45.394;10.978;2023-02-12T04:08:31;-0.20;99.90
23385;DHT22;11865;45.394;10.978;2023-02-12T04:13:57;-0.50;99.90
23385;DHT22;11865;45.394;10.978;2023-02-12T04:19:09;-0.40;99.90
23385;DHT22;11865;45.394;10.978;2023-02-12T04:24:52;-0.20;99.90
23385;DHT22;11865;45.394;10.978;2023-02-12T04:27:31;-0.10;99.90
23385;DHT22;11865;45.394;10.978;2023-02-12T04:32:49;-0.30;99.90
23385;DHT22;11865;45.394;10.978;2023-02-12T04:35:23;-0.30;99.90
23385;DHT22;11865;45.394;10.978;2023-02-12T04:38:28;-0.30;99.90
23385;DHT22;11865;45.394;10.978;2023-02-12T04:40:57;-0.20;99.90
23385;DHT22;11865;45.394;10.978;2023-02-12T04:43:33;-0.20;99.90
23385;DHT22;11865;45.394;10.978;2023-02-12T04:46:04;-0.20;99.90
23385;DHT22;11865;45.394;10.978;2023-02-12T04:48:32;-0.30;99.90
23385;DHT22;11865;45.394;10.978;2023-02-12T04:51:01;-0.50;99.90
23385;DHT22;11865;45.394;10.978;2023-02-12T04:53:28;-0.50;99.90
23385;DHT22;11865;45.394;10.978;2023-02-12T04:55:56;-0.40;99.90
23385;DHT22;11865;45.394;10.978;2023-02-12T04:58:24;-0.40;99.90
23385;DHT22;11865;45.394;10.978;2023-02-12T05:00:51;-0.30;99.90
23385;DHT22;11865;45.394;10.978;2023-02-12T05:03:19;-0.50;99.90
23385;DHT22;11865;45.394;10.978;2023-02-12T05:05:46;-0.60;99.90
23385;DHT22;11865;45.394;10.978;2023-02-12T05:08:13;-0.60;99.90
23385;DHT22;11865;45.394;10.978;2023-02-12T05:10:41;-0.90;99.90
23385;DHT22;11865;45.394;10.978;2023-02-12T05:13:09;-0.80;99.90
23385;DHT22;11865;45.394;10.978;2023-02-12T05:15:40;-0.60;99.90
23385;DHT22;11865;45.394;10.978;2023-02-12T05:18:07;-0.40;99.90
23385;DHT22;11865;45.394;10.978;2023-02-12T05:20:35;-0.30;99.90
23385;DHT22;11865;45.394;10.978;2023-02-12T05:23:02;-0.10;99.90
23385;DHT22;11865;45.394;10.978;2023-02-12T05:25:30;-0.20;99.90
23385;DHT22;11865;45.394;10.978;2023-02-12T05:27:58;-0.10;99.90
23385;DHT22;11865;45.394;10.978;2023-02-12T05:30:26;-0.20;99.90
23385;DHT22;11865;45.394;10.978;2023-02-12T05:32:54;-0.50;99.90
23385;DHT22;11865;45.394;10.978;2023-02-12T05:35:21;-0.60;99.90
23385;DHT22;11865;45.394;10.978;2023-02-12T05:37:48;-0.40;99.90
23385;DHT22;11865;45.394;10.978;2023-02-12T05:40:16;-0.30;99.90
23385;DHT22;11865;45.394;10.978;2023-02-12T05:42:44;-0.10;99.90
23385;DHT22;11865;45.394;10.978;2023-02-12T05:45:11;-0.30;99.90
23385;DHT22;11865;45.394;10.978;2023-02-12T05:47:39;-0.40;99.90
23385;DHT22;11865;45.394;10.978;2023-02-12T05:50:06;-0.60;99.90
23385;DHT22;11865;45.394;10.978;2023-02-12T05:52:34;-0.60;99.90
23385;DHT22;11865;45.394;10.978;2023-02-12T05:55:02;-0.80;99.90
23385;DHT22;11865;45.394;10.978;2023-02-12T05:57:29;-0.70;99.90
23385;DHT22;11865;45.394;10.978;2023-02-12T05:59:57;-0.70;99.90
23385;DHT22;11865;45.394;10.978;2023-02-12T06:02:24;-0.70;99.90
23385;DHT22;11865;45.394;10.978;2023-02-12T06:04:52;-0.80;99.90
23385;DHT22;11865;45.394;10.978;2023-02-12T06:07:19;-0.60;99.90
23385;DHT22;11865;45.394;10.978;2023-02-12T06:09:47;-0.60;99.90
23385;DHT22;11865;45.394;10.978;2023-02-12T06:12:15;-0.70;99.90
23385;DHT22;11865;45.394;10.978;2023-02-12T06:14:42;-0.80;99.90
23385;DHT22;11865;45.394;10.978;2023-02-12T06:17:10;-0.60;99.90
23385;DHT22;11865;45.394;10.978;2023-02-12T06:19:37;-0.60;99.90
23385;DHT22;11865;45.394;10.978;2023-02-12T06:22:05;-0.60;99.90
23385;DHT22;11865;45.394;10.978;2023-02-12T06:24:32;-0.60;99.90
23385;DHT22;11865;45.394;10.978;2023-02-12T06:27:00;-0.70;99.90
23385;DHT22;11865;45.394;10.978;2023-02-12T06:29:27;-0.80;99.90
23385;DHT22;11865;45.394;10.978;2023-02-12T06:31:55;-0.90;99.90
23385;DHT22;11865;45.394;10.978;2023-02-12T06:34:23;-0.70;99.90
23385;DHT22;11865;45.394;10.978;2023-02-12T06:36:50;-0.70;99.90
23385;DHT22;11865;45.394;10.978;2023-02-12T06:39:18;-0.80;99.90
23385;DHT22;11865;45.394;10.978;2023-02-12T06:41:45;-0.70;99.90
23385;DHT22;11865;45.394;10.978;2023-02-12T06:44:13;-0.60;99.90
23385;DHT22;11865;45.394;10.978;2023-02-12T06:46:40;-0.50;99.90
23385;DHT22;11865;45.394;10.978;2023-02-12T06:49:11;-0.50;99.90
23385;DHT22;11865;45.394;10.978;2023-02-12T06:51:39;-0.40;99.90
23385;DHT22;11865;45.394;10.978;2023-02-12T06:54:14;-0.30;99.90
23385;DHT22;11865;45.394;10.978;2023-02-12T06:56:42;-0.10;99.90
23385;DHT22;11865;45.394;10.978;2023-02-12T06:59:13;-0.10;99.90
23385;DHT22;11865;45.394;10.978;2023-02-12T07:01:44;-0.30;99.90
23385;DHT22;11865;45.394;10.978;2023-02-12T07:04:12;-0.30;99.90
23385;DHT22;11865;45.394;10.978;2023-02-12T07:06:40;-0.40;99.90
23385;DHT22;11865;45.394;10.978;2023-02-12T07:09:07;-0.30;99.90
23385;DHT22;11865;45.394;10.978;2023-02-12T07:11:35;-0.20;99.90
23385;DHT22;11865;45.394;10.978;2023-02-12T07:14:05;0.10;99.90
23385;DHT22;11865;45.394;10.978;2023-02-12T07:16:33;0.50;99.90
23385;DHT22;11865;45.394;10.978;2023-02-12T07:19:01;0.80;99.90
23385;DHT22;11865;45.394;10.978;2023-02-12T07:21:28;1.10;99.90
23385;DHT22;11865;45.394;10.978;2023-02-12T07:23:57;1.20;99.90
23385;DHT22;11865;45.394;10.978;2023-02-12T07:26:24;1.10;99.90
23385;DHT22;11865;45.394;10.978;2023-02-12T07:28:51;1.10;99.90
23385;DHT22;11865;45.394;10.978;2023-02-12T07:31:21;1.20;99.90
23385;DHT22;11865;45.394;10.978;2023-02-12T07:33:53;1.50;99.90
23385;DHT22;11865;45.394;10.978;2023-02-12T07:36:22;1.60;99.90
23385;DHT22;11865;45.394;10.978;2023-02-12T07:38:50;1.60;99.90
23385;DHT22;11865;45.394;10.978;2023-02-12T07:41:21;1.70;99.90
23385;DHT22;11865;45.394;10.978;2023-02-12T07:43:53;1.80;99.90
23385;DHT22;11865;45.394;10.978;2023-02-12T07:46:21;1.80;99.90
23385;DHT22;11865;45.394;10.978;2023-02-12T07:48:50;1.90;99.90
23385;DHT22;11865;45.394;10.978;2023-02-12T07:51:18;2.10;99.90
23385;DHT22;11865;45.394;10.978;2023-02-12T07:53:46;2.40;99.90
23385;DHT22;11865;45.394;10.978;2023-02-12T07:56:17;2.50;99.90
23385;DHT22;11865;45.394;10.978;2023-02-12T07:58:46;2.50;99.90
23385;DHT22;11865;45.394;10.978;2023-02-12T08:01:25;2.50;99.90
23385;DHT22;11865;45.394;10.978;2023-02-12T08:03:58;2.70;99.90
23385;DHT22;11865;45.394;10.978;2023-02-12T08:06:30;2.90;99.90
23385;DHT22;11865;45.394;10.978;2023-02-12T08:09:00;3.10;99.90
23385;DHT22;11865;45.394;10.978;2023-02-12T08:11:29;3.20;99.90
23385;DHT22;11865;45.394;10.978;2023-02-12T08:13:57;3.40;99.90
23385;DHT22;11865;45.394;10.978;2023-02-12T08:16:26;3.50;99.90
23385;DHT22;11865;45.394;10.978;2023-02-12T08:18:55;3.60;99.90
23385;DHT22;11865;45.394;10.978;2023-02-12T08:21:33;3.80;99.90
23385;DHT22;11865;45.394;10.978;2023-02-12T08:24:01;3.90;99.90
23385;DHT22;11865;45.394;10.978;2023-02-12T08:26:34;4.10;99.90
23385;DHT22;11865;45.394;10.978;2023-02-12T08:29:07;4.40;99.90
23385;DHT22;11865;45.394;10.978;2023-02-12T08:31:38;4.50;99.90
23385;DHT22;11865;45.394;10.978;2023-02-12T08:34:06;4.50;99.90
23385;DHT22;11865;45.394;10.978;2023-02-12T08:36:41;4.60;99.90
23385;DHT22;11865;45.394;10.978;2023-02-12T08:39:11;4.60;99.90
23385;DHT22;11865;45.394;10.978;2023-02-12T08:41:39;4.70;99.40
23385;DHT22;11865;45.394;10.978;2023-02-12T08:44:09;5.00;99.10
23385;DHT22;11865;45.394;10.978;2023-02-12T08:46:41;5.30;98.50
23385;DHT22;11865;45.394;10.978;2023-02-12T08:49:14;5.30;97.80
23385;DHT22;11865;45.394;10.978;2023-02-12T08:51:44;5.60;96.90
23385;DHT22;11865;45.394;10.978;2023-02-12T08:54:14;5.80;96.50
23385;DHT22;11865;45.394;10.978;2023-02-12T08:56:42;5.80;96.40
23385;DHT22;11865;45.394;10.978;2023-02-12T08:59:14;5.90;95.60
23385;DHT22;11865;45.394;10.978;2023-02-12T09:01:43;6.00;95.30
23385;DHT22;11865;45.394;10.978;2023-02-12T09:04:16;6.10;95.40
23385;DHT22;11865;45.394;10.978;2023-02-12T09:06:45;6.10;94.90
23385;DHT22;11865;45.394;10.978;2023-02-12T09:09:13;6.20;95.20
23385;DHT22;11865;45.394;10.978;2023-02-12T09:11:41;6.00;96.10
23385;DHT22;11865;45.394;10.978;2023-02-12T09:14:12;6.10;96.80
23385;DHT22;11865;45.394;10.978;2023-02-12T09:16:40;6.20;96.50
23385;DHT22;11865;45.394;10.978;2023-02-12T09:19:10;6.40;96.10
23385;DHT22;11865;45.394;10.978;2023-02-12T09:21:38;6.50;95.20
23385;DHT22;11865;45.394;10.978;2023-02-12T09:24:06;6.70;95.00
23385;DHT22;11865;45.394;10.978;2023-02-12T09:26:33;6.80;95.00
23385;DHT22;11865;45.394;10.978;2023-02-12T09:29:03;6.90;93.90
23385;DHT22;11865;45.394;10.978;2023-02-12T09:31:31;7.00;94.00
23385;DHT22;11865;45.394;10.978;2023-02-12T09:34:02;7.10;94.00
23385;DHT22;11865;45.394;10.978;2023-02-12T09:36:30;7.10;94.60
23385;DHT22;11865;45.394;10.978;2023-02-12T09:38:59;7.20;94.20
23385;DHT22;11865;45.394;10.978;2023-02-12T09:52:56;7.30;94.30
23385;DHT22;11865;45.394;10.978;2023-02-12T09:55:31;7.30;93.20
23385;DHT22;11865;45.394;10.978;2023-02-12T09:58:03;7.50;93.80
23385;DHT22;11865;45.394;10.978;2023-02-12T10:00:31;7.40;94.10
23385;DHT22;11865;45.394;10.978;2023-02-12T10:03:04;7.60;94.50
23385;DHT22;11865;45.394;10.978;2023-02-12T10:05:41;7.60;94.20
23385;DHT22;11865;45.394;10.978;2023-02-12T10:08:14;7.70;93.70
23385;DHT22;11865;45.394;10.978;2023-02-12T10:22:12;8.00;90.80
23385;DHT22;11865;45.394;10.978;2023-02-12T10:27:39;8.10;90.50
23385;DHT22;11865;45.394;10.978;2023-02-12T10:32:51;8.40;88.70
23385;DHT22;11865;45.394;10.978;2023-02-12T10:35:21;8.50;90.70
23385;DHT22;11865;45.394;10.978;2023-02-12T10:38:13;8.60;90.70
23385;DHT22;11865;45.394;10.978;2023-02-12T10:40:43;8.60;90.00
23385;DHT22;11865;45.394;10.978;2023-02-12T10:43:12;8.60;89.80
23385;DHT22;11865;45.394;10.978;2023-02-12T10:45:42;8.70;90.00
23385;DHT22;11865;45.394;10.978;2023-02-12T10:48:20;8.70;89.60
23385;DHT22;11865;45.394;10.978;2023-02-12T10:53:42;8.90;89.90
23385;DHT22;11865;45.394;10.978;2023-02-12T10:56:12;9.00;88.90
23385;DHT22;11865;45.394;10.978;2023-02-12T10:58:42;9.00;89.80
23385;DHT22;11865;45.394;10.978;2023-02-12T11:03:47;9.00;90.70
23385;DHT22;11865;45.394;10.978;2023-02-12T11:06:17;9.20;89.50
23385;DHT22;11865;45.394;10.978;2023-02-12T11:08:45;9.40;87.20
23385;DHT22;11865;45.394;10.978;2023-02-12T11:11:13;9.30;87.30
23385;DHT22;11865;45.394;10.978;2023-02-12T11:13:52;9.40;86.90
23385;DHT22;11865;45.394;10.978;2023-02-12T11:16:29;9.50;86.90
23385;DHT22;11865;45.394;10.978;2023-02-12T11:19:05;9.80;82.90
23385;DHT22;11865;45.394;10.978;2023-02-12T11:21:34;9.80;81.40
23385;DHT22;11865;45.394;10.978;2023-02-12T11:24:34;9.80;82.40
23385;DHT22;11865;45.394;10.978;2023-02-12T11:29:44;10.10;84.10
23385;DHT22;11865;45.394;10.978;2023-02-12T11:32:17;10.00;84.70
23385;DHT22;11865;45.394;10.978;2023-02-12T11:37:42;10.00;84.00
23385;DHT22;11865;45.394;10.978;2023-02-12T11:40:26;10.00;84.60
23385;DHT22;11865;45.394;10.978;2023-02-12T11:43:03;10.00;84.50
23385;DHT22;11865;45.394;10.978;2023-02-12T11:48:20;10.40;83.20
23385;DHT22;11865;45.394;10.978;2023-02-12T11:50:52;10.50;84.30
23385;DHT22;11865;45.394;10.978;2023-02-12T11:53:32;10.60;80.00
23385;DHT22;11865;45.394;10.978;2023-02-12T11:56:04;10.50;81.10
23385;DHT22;11865;45.394;10.978;2023-02-12T11:58:33;10.40;83.40
23385;DHT22;11865;45.394;10.978;2023-02-12T12:01:14;10.50;82.70
23385;DHT22;11865;45.394;10.978;2023-02-12T12:03:59;10.60;82.70
23385;DHT22;11865;45.394;10.978;2023-02-12T12:09:25;10.60;82.20
23385;DHT22;11865;45.394;10.978;2023-02-12T12:17:54;10.70;83.90
23385;DHT22;11865;45.394;10.978;2023-02-12T12:21:18;10.70;83.60
23385;DHT22;11865;45.394;10.978;2023-02-12T12:23:51;11.10;78.20
23385;DHT22;11865;45.394;10.978;2023-02-12T12:26:29;11.30;79.00
23385;DHT22;11865;45.394;10.978;2023-02-12T12:29:05;11.30;77.80
23385;DHT22;11865;45.394;10.978;2023-02-12T12:31:39;11.40;80.40
23385;DHT22;11865;45.394;10.978;2023-02-12T12:34:12;11.40;80.10
23385;DHT22;11865;45.394;10.978;2023-02-12T13:10:54;11.60;80.10
23385;DHT22;11865;45.394;10.978;2023-02-12T13:13:30;11.80;79.90
23385;DHT22;11865;45.394;10.978;2023-02-12T13:21:23;12.10;76.50
23385;DHT22;11865;45.394;10.978;2023-02-12T13:27:20;12.20;71.90
23385;DHT22;11865;45.394;10.978;2023-02-12T13:32:36;12.80;63.80
23385;DHT22;11865;45.394;10.978;2023-02-12T13:35:07;13.00;61.60
23385;DHT22;11865;45.394;10.978;2023-02-12T13:37:43;13.00;62.80
23385;DHT22;11865;45.394;10.978;2023-02-12T13:40:17;13.00;62.10
23385;DHT22;11865;45.394;10.978;2023-02-12T13:53:27;13.20;58.40
23385;DHT22;11865;45.394;10.978;2023-02-12T14:01:01;13.20;57.10
23385;DHT22;11865;45.394;10.978;2023-02-12T14:03:29;13.30;56.70
23385;DHT22;11865;45.394;10.978;2023-02-12T14:06:16;13.30;56.40
23385;DHT22;11865;45.394;10.978;2023-02-12T14:08:50;13.40;56.40
23385;DHT22;11865;45.394;10.978;2023-02-12T14:11:20;13.50;57.30
23385;DHT22;11865;45.394;10.978;2023-02-12T14:13:59;13.60;57.10
23385;DHT22;11865;45.394;10.978;2023-02-12T14:22:13;13.40;55.10
23385;DHT22;11865;45.394;10.978;2023-02-12T14:24:58;13.50;56.60
23385;DHT22;11865;45.394;10.978;2023-02-12T14:27:33;13.50;57.10
23385;DHT22;11865;45.394;10.978;2023-02-12T14:30:26;13.50;56.80
23385;DHT22;11865;45.394;10.978;2023-02-12T14:32:58;13.30;58.00
23385;DHT22;11865;45.394;10.978;2023-02-12T14:37:56;13.40;58.00
23385;DHT22;11865;45.394;10.978;2023-02-12T14:43:22;13.40;59.00
23385;DHT22;11865;45.394;10.978;2023-02-12T14:45:51;13.30;59.20
23385;DHT22;11865;45.394;10.978;2023-02-12T14:48:49;13.20;59.30
23385;DHT22;11865;45.394;10.978;2023-02-12T14:53:48;13.20;61.30
23385;DHT22;11865;45.394;10.978;2023-02-12T14:56:20;13.20;60.40
23385;DHT22;11865;45.394;10.978;2023-02-12T14:58:50;13.20;61.10
23385;DHT22;11865;45.394;10.978;2023-02-12T15:01:31;13.20;62.00
23385;DHT22;11865;45.394;10.978;2023-02-12T15:04:11;13.10;62.30
23385;DHT22;11865;45.394;10.978;2023-02-12T15:06:50;13.10;63.10
23385;DHT22;11865;45.394;10.978;2023-02-12T15:12:21;13.00;63.30
23385;DHT22;11865;45.394;10.978;2023-02-12T15:17:39;13.00;64.30
23385;DHT22;11865;45.394;10.978;2023-02-12T15:20:19;13.00;65.50
23385;DHT22;11865;45.394;10.978;2023-02-12T15:22:47;12.80;65.80
23385;DHT22;11865;45.394;10.978;2023-02-12T15:25:26;12.80;65.90
23385;DHT22;11865;45.394;10.978;2023-02-12T15:28:18;12.80;66.70
23385;DHT22;11865;45.394;10.978;2023-02-12T15:30:48;12.80;66.30
23385;DHT22;11865;45.394;10.978;2023-02-12T15:33:25;12.80;66.70
23385;DHT22;11865;45.394;10.978;2023-02-12T15:35:54;12.70;66.60
23385;DHT22;11865;45.394;10.978;2023-02-12T15:38:39;12.70;67.60
23385;DHT22;11865;45.394;10.978;2023-02-12T15:44:20;12.70;67.70
23385;DHT22;11865;45.394;10.978;2023-02-12T15:49:36;12.60;68.50
23385;DHT22;11865;45.394;10.978;2023-02-12T15:52:16;12.50;68.40
23385;DHT22;11865;45.394;10.978;2023-02-12T15:54:45;12.50;68.60
23385;DHT22;11865;45.394;10.978;2023-02-12T15:57:20;12.40;69.70
23385;DHT22;11865;45.394;10.978;2023-02-12T15:59:57;12.40;69.10
23385;DHT22;11865;45.394;10.978;2023-02-12T16:02:30;12.40;69.70
23385;DHT22;11865;45.394;10.978;2023-02-12T16:05:02;12.30;70.30
23385;DHT22;11865;45.394;10.978;2023-02-12T16:07:34;12.30;70.60
23385;DHT22;11865;45.394;10.978;2023-02-12T16:10:04;12.20;70.30
23385;DHT22;11865;45.394;10.978;2023-02-12T16:12:33;12.20;70.90
23385;DHT22;11865;45.394;10.978;2023-02-12T16:15:04;12.10;70.90
23385;DHT22;11865;45.394;10.978;2023-02-12T16:17:34;12.00;71.50
23385;DHT22;11865;45.394;10.978;2023-02-12T16:22:41;11.90;71.50
23385;DHT22;11865;45.394;10.978;2023-02-12T16:32:55;11.80;72.20
23385;DHT22;11865;45.394;10.978;2023-02-12T16:35:33;11.60;73.20
23385;DHT22;11865;45.394;10.978;2023-02-12T16:43:40;11.40;75.50
23385;DHT22;11865;45.394;10.978;2023-02-12T16:46:08;11.40;74.70
23385;DHT22;11865;45.394;10.978;2023-02-12T16:48:47;11.30;75.30
23385;DHT22;11865;45.394;10.978;2023-02-12T16:51:31;11.20;75.30
23385;DHT22;11865;45.394;10.978;2023-02-12T16:54:01;11.20;75.70
23385;DHT22;11865;45.394;10.978;2023-02-12T16:56:35;11.10;75.90
23385;DHT22;11865;45.394;10.978;2023-02-12T16:59:04;11.00;76.60
23385;DHT22;11865;45.394;10.978;2023-02-12T17:01:34;10.90;77.00
23385;DHT22;11865;45.394;10.978;2023-02-12T17:04:07;10.90;76.90
23385;DHT22;11865;45.394;10.978;2023-02-12T17:06:35;10.90;77.30
23385;DHT22;11865;45.394;10.978;2023-02-12T17:09:02;10.80;77.60
23385;DHT22;11865;45.394;10.978;2023-02-12T17:11:30;10.80;77.30
23385;DHT22;11865;45.394;10.978;2023-02-12T17:13:57;10.80;77.60
23385;DHT22;11865;45.394;10.978;2023-02-12T17:16:25;10.70;77.90
23385;DHT22;11865;45.394;10.978;2023-02-12T17:18:58;10.60;78.20
23385;DHT22;11865;45.394;10.978;2023-02-12T17:21:29;10.60;78.50
23385;DHT22;11865;45.394;10.978;2023-02-12T17:23:57;10.60;78.90
23385;DHT22;11865;45.394;10.978;2023-02-12T17:26:25;10.60;78.70
23385;DHT22;11865;45.394;10.978;2023-02-12T17:28:53;10.50;78.90
23385;DHT22;11865;45.394;10.978;2023-02-12T17:31:20;10.40;79.30
23385;DHT22;11865;45.394;10.978;2023-02-12T17:33:50;10.40;79.50
23385;DHT22;11865;45.394;10.978;2023-02-12T17:36:17;10.30;79.70
23385;DHT22;11865;45.394;10.978;2023-02-12T17:38:45;10.30;79.90
23385;DHT22;11865;45.394;10.978;2023-02-12T17:41:12;10.20;79.90
23385;DHT22;11865;45.394;10.978;2023-02-12T17:43:40;10.30;80.00
23385;DHT22;11865;45.394;10.978;2023-02-12T17:46:12;10.30;79.90
23385;DHT22;11865;45.394;10.978;2023-02-12T17:48:40;10.30;79.70
23385;DHT22;11865;45.394;10.978;2023-02-12T17:51:09;10.30;79.50
23385;DHT22;11865;45.394;10.978;2023-02-12T17:53:38;10.30;79.60
23385;DHT22;11865;45.394;10.978;2023-02-12T17:56:15;10.20;80.10
23385;DHT22;11865;45.394;10.978;2023-02-12T17:58:43;10.10;80.30
23385;DHT22;11865;45.394;10.978;2023-02-12T18:01:14;10.10;80.40
23385;DHT22;11865;45.394;10.978;2023-02-12T18:03:41;10.10;80.60
23385;DHT22;11865;45.394;10.978;2023-02-12T18:06:09;10.10;80.40
23385;DHT22;11865;45.394;10.978;2023-02-12T18:08:40;10.10;80.40
23385;DHT22;11865;45.394;10.978;2023-02-12T18:11:09;10.00;80.60
23385;DHT22;11865;45.394;10.978;2023-02-12T18:13:37;10.10;80.30
23385;DHT22;11865;45.394;10.978;2023-02-12T18:16:07;10.00;80.40
23385;DHT22;11865;45.394;10.978;2023-02-12T18:18:35;10.00;80.90
23385;DHT22;11865;45.394;10.978;2023-02-12T18:21:12;10.00;80.90
23385;DHT22;11865;45.394;10.978;2023-02-12T18:23:40;9.90;81.00
23385;DHT22;11865;45.394;10.978;2023-02-12T18:26:13;9.90;80.90
23385;DHT22;11865;45.394;10.978;2023-02-12T18:28:41;9.80;81.30
23385;DHT22;11865;45.394;10.978;2023-02-12T18:31:09;9.80;81.40
23385;DHT22;11865;45.394;10.978;2023-02-12T18:33:37;9.80;81.40
23385;DHT22;11865;45.394;10.978;2023-02-12T18:36:08;9.80;81.20
23385;DHT22;11865;45.394;10.978;2023-02-12T18:38:37;9.80;81.10
23385;DHT22;11865;45.394;10.978;2023-02-12T18:41:07;9.70;81.20
23385;DHT22;11865;45.394;10.978;2023-02-12T18:43:35;9.80;81.30
23385;DHT22;11865;45.394;10.978;2023-02-12T18:46:10;9.80;81.10
23385;DHT22;11865;45.394;10.978;2023-02-12T18:48:38;9.80;81.10
23385;DHT22;11865;45.394;10.978;2023-02-12T18:51:07;9.70;81.40
23385;DHT22;11865;45.394;10.978;2023-02-12T18:53:35;9.70;81.70
23385;DHT22;11865;45.394;10.978;2023-02-12T18:56:04;9.70;81.40
23385;DHT22;11865;45.394;10.978;2023-02-12T18:58:33;9.70;81.40
23385;DHT22;11865;45.394;10.978;2023-02-12T19:01:10;9.70;81.10
23385;DHT22;11865;45.394;10.978;2023-02-12T19:03:38;9.70;81.10
23385;DHT22;11865;45.394;10.978;2023-02-12T19:06:05;9.70;81.00
23385;DHT22;11865;45.394;10.978;2023-02-12T19:08:33;9.60;81.30